createdAt,value
2024-03-15T00:02:55.809Z,21.30
2024-03-15T00:07:58.731Z,23.30
2024-03-15T00:13:04.545Z,22.50
2024-03-15T00:18:08.949Z,21.60
2024-03-15T00:23:12.491Z,22.10
2024-03-15T00:28:15.350Z,22.90
2024-03-15T00:33:22.853Z,21.30
2024-03-15T00:38:25.704Z,22.30
2024-03-15T00:43:29.050Z,22.60
2024-03-15T00:48:32.042Z,23.40
2024-03-15T00:53:35.867Z,22.80
2024-03-15T00:58:40.095Z,22.50
2024-03-15T01:03:43.021Z,21.80
2024-03-15T01:08:46.184Z,22.70
2024-03-15T01:13:55.281Z,23.20
2024-03-15T01:18:58.791Z,23.60
2024-03-15T01:24:01.735Z,22.20
2024-03-15T01:29:04.574Z,22.40
2024-03-15T01:34:07.482Z,21.00
2024-03-15T01:39:10.463Z,22.00
2024-03-15T01:44:15.068Z,22.50
2024-03-15T01:49:18.448Z,21.80
2024-03-15T01:54:21.291Z,22.90
2024-03-15T01:59:26.178Z,22.90
2024-03-15T02:04:29.002Z,22.70
2024-03-15T02:09:31.933Z,22.70
2024-03-15T02:14:35.174Z,22.40
2024-03-15T02:19:38.288Z,24.80
2024-03-15T02:24:42.034Z,23.20
2024-03-15T02:29:46.461Z,24.20
2024-03-15T02:34:52.118Z,23.60
2024-03-15T02:39:55.075Z,23.70
2024-03-15T02:44:58.089Z,24.00
2024-03-15T02:50:01.237Z,22.50
2024-03-15T02:55:05.696Z,23.40
2024-03-15T03:00:11.344Z,22.60
2024-03-15T03:05:14.280Z,24.50
2024-03-15T03:10:17.111Z,25.10
2024-03-15T03:15:21.431Z,24.20
2024-03-15T03:20:25.260Z,23.80
2024-03-15T03:25:28.433Z,24.50
2024-03-15T03:30:31.558Z,22.70
2024-03-15T03:35:34.695Z,24.30
2024-03-15T03:40:38.373Z,23.70
2024-03-15T03:45:48.430Z,24.40
2024-03-15T03:50:52.076Z,23.80
2024-03-15T03:55:54.983Z,22.50
2024-03-15T04:01:00.437Z,24.10
2024-03-15T04:06:03.850Z,24.80
2024-03-15T04:11:06.795Z,24.60
2024-03-15T04:16:09.836Z,23.90
2024-03-15T04:21:13.512Z,23.90
2024-03-15T04:26:16.988Z,22.60
2024-03-15T04:31:22.103Z,23.90
2024-03-15T04:36:25.734Z,24.90
2024-03-15T04:41:29.004Z,23.50
2024-03-15T04:46:32.003Z,24.50
2024-03-15T04:51:35.233Z,23.80
2024-03-15T04:56:38.054Z,24.20
2024-03-15T05:01:40.910Z,26.00
2024-03-15T05:06:44.943Z,24.10
2024-03-15T05:11:48.012Z,24.90
2024-03-15T05:16:57.550Z,24.50
2024-03-15T05:22:01.141Z,26.00
2024-03-15T05:27:04.533Z,24.90
2024-03-15T05:32:08.382Z,24.10
2024-03-15T05:37:11.432Z,22.70
2024-03-15T05:42:14.444Z,25.30
2024-03-15T05:47:18.011Z,25.10
2024-03-15T05:52:21.739Z,25.60
2024-03-15T05:57:28.202Z,25.00
2024-03-15T06:02:31.265Z,25.00
2024-03-15T06:07:35.696Z,25.80
2024-03-15T06:12:38.698Z,26.30
2024-03-15T06:17:42.504Z,26.80
2024-03-15T06:22:49.032Z,23.40
2024-03-15T06:27:52.279Z,23.10
2024-03-15T06:33:00.444Z,26.30
2024-03-15T06:38:18.419Z,28.90
2024-03-15T06:43:36.964Z,27.30
2024-03-15T06:48:46.254Z,25.60
2024-03-15T06:53:49.267Z,24.90
2024-03-15T06:58:52.106Z,27.20
2024-03-15T07:03:56.940Z,25.90
2024-03-15T07:09:00.714Z,26.60
2024-03-15T07:14:05.926Z,22.70
2024-03-15T07:19:09.409Z,21.50
2024-03-15T07:24:12.755Z,24.00
2024-03-15T07:29:15.916Z,23.90
2024-03-15T07:34:19.175Z,25.70
2024-03-15T07:39:24.529Z,23.10
2024-03-15T07:44:29.164Z,24.40
2024-03-15T07:49:32.070Z,24.00
2024-03-15T07:54:35.421Z,26.90
2024-03-15T07:59:38.606Z,24.80
2024-03-15T08:04:46.796Z,24.80
2024-03-15T08:09:50.187Z,26.20
2024-03-15T08:14:53.487Z,22.40
2024-03-15T08:19:56.735Z,24.40
2024-03-15T08:24:59.700Z,24.40
2024-03-15T08:30:05.450Z,23.80
2024-03-15T08:35:09.391Z,23.70
2024-03-15T08:40:14.557Z,24.20
2024-03-15T08:45:18.653Z,20.90
2024-03-15T08:50:38.016Z,20.90
2024-03-15T08:55:43.759Z,22.40
2024-03-15T09:00:50.014Z,22.10
2024-03-15T09:05:53.040Z,22.90
2024-03-15T09:10:55.874Z,21.70
2024-03-15T09:15:59.797Z,21.40
2024-03-15T09:21:02.785Z,21.90
2024-03-15T09:26:08.454Z,22.80
2024-03-15T09:31:24.004Z,22.10
2024-03-15T09:36:35.210Z,22.70
2024-03-15T09:41:39.661Z,21.10
2024-03-15T09:46:43.624Z,20.30
2024-03-15T09:51:51.497Z,22.20
2024-03-15T09:56:55.052Z,21.10
2024-03-15T10:01:58.296Z,20.90
2024-03-15T10:07:03.030Z,22.20
2024-03-15T10:12:06.375Z,21.70
2024-03-15T10:17:11.196Z,21.50
2024-03-15T10:22:14.166Z,22.50
2024-03-15T10:27:17.783Z,21.40
2024-03-15T10:32:20.830Z,21.40
2024-03-15T10:37:24.294Z,21.30
2024-03-15T10:42:27.707Z,21.30
2024-03-15T10:47:30.984Z,21.20
2024-03-15T10:52:35.380Z,20.10
2024-03-15T10:57:39.660Z,20.70
2024-03-15T11:02:46.332Z,21.20
2024-03-15T11:08:01.830Z,20.60
2024-03-15T11:13:05.426Z,21.90
2024-03-15T11:18:10.563Z,23.40
2024-03-15T11:23:18.627Z,22.50
2024-03-15T11:28:23.167Z,20.00
2024-03-15T11:33:27.473Z,21.00
2024-03-15T11:38:30.732Z,21.30
2024-03-15T11:43:34.237Z,21.10
2024-03-15T11:48:37.410Z,22.40
2024-03-15T11:53:40.439Z,18.90
2024-03-15T11:58:43.308Z,21.20
2024-03-15T12:03:46.983Z,19.50
2024-03-15T12:08:50.615Z,20.10
2024-03-15T12:14:01.055Z,21.40
2024-03-15T12:19:04.313Z,19.40
2024-03-15T12:24:08.730Z,19.80
2024-03-15T12:29:11.645Z,19.00
2024-03-15T12:34:14.592Z,18.20
2024-03-15T12:39:17.504Z,17.20
2024-03-15T12:44:20.639Z,17.10
2024-03-15T12:49:57.759Z,17.30
2024-03-15T12:55:01.090Z,17.10
2024-03-15T13:00:07.814Z,17.20
2024-03-15T13:05:15.634Z,16.60
2024-03-15T13:10:20.738Z,16.20
2024-03-15T13:15:24.307Z,15.50
2024-03-15T13:20:27.451Z,15.10
2024-03-15T13:25:36.364Z,15.00
2024-03-15T13:30:41.421Z,14.20
2024-03-15T13:35:44.706Z,12.90
2024-03-15T13:40:48.241Z,13.50
2024-03-15T13:45:58.351Z,13.40
2024-03-15T13:51:01.698Z,13.10
2024-03-15T13:56:11.417Z,12.10
2024-03-15T14:01:19.822Z,13.30
2024-03-15T14:06:22.763Z,12.50
2024-03-15T14:11:25.508Z,13.10
2024-03-15T14:16:28.167Z,12.40
2024-03-15T14:21:30.997Z,11.90
2024-03-15T14:26:37.210Z,12.60
2024-03-15T14:31:39.910Z,13.00
2024-03-15T14:36:42.932Z,12.10
2024-03-15T14:41:45.520Z,12.10
2024-03-15T14:46:48.155Z,13.10
2024-03-15T14:51:50.964Z,12.00
2024-03-15T14:56:53.555Z,11.40
2024-03-15T15:01:56.273Z,10.70
2024-03-15T15:06:59.052Z,11.00
2024-03-15T15:12:02.114Z,11.80
2024-03-15T15:17:08.521Z,12.70
2024-03-15T15:22:11.730Z,13.80
2024-03-15T15:27:18.513Z,12.70
2024-03-15T15:32:21.326Z,15.10
2024-03-15T15:37:23.972Z,12.10
2024-03-15T15:42:28.107Z,12.40
2024-03-15T15:47:31.232Z,13.10
2024-03-15T15:52:35.139Z,12.40
2024-03-15T15:57:41.851Z,12.20
2024-03-15T16:02:45.740Z,11.90
2024-03-15T16:07:48.573Z,11.90
2024-03-15T16:12:51.277Z,11.40
2024-03-15T16:17:54.170Z,10.70
2024-03-15T16:22:58.267Z,11.40
2024-03-15T16:28:01.275Z,10.50
2024-03-15T16:33:07.445Z,9.80
2024-03-15T16:38:11.783Z,10.50
2024-03-15T16:43:14.576Z,9.90
2024-03-15T16:48:19.960Z,9.50
2024-03-15T16:53:24.261Z,11.30
2024-03-15T16:58:29.575Z,9.40
2024-03-15T17:03:34.431Z,10.80
2024-03-15T17:08:38.715Z,10.50
2024-03-15T17:13:41.565Z,10.60
2024-03-15T17:18:46.658Z,11.30
2024-03-15T17:23:50.085Z,11.70
2024-03-15T17:28:52.784Z,12.20
2024-03-15T17:33:55.828Z,14.70
2024-03-15T17:38:58.899Z,12.50
2024-03-15T17:44:01.557Z,11.60
2024-03-15T17:49:04.350Z,11.20
2024-03-15T17:54:07.018Z,11.60
2024-03-15T17:59:09.793Z,12.10
2024-03-15T18:04:12.631Z,13.20
2024-03-15T18:09:15.352Z,16.50
2024-03-15T18:14:18.180Z,14.50
2024-03-15T18:19:20.827Z,19.00
2024-03-15T18:24:23.851Z,14.40
2024-03-15T18:29:28.264Z,14.60
2024-03-15T18:34:30.966Z,20.10
2024-03-15T18:39:34.159Z,14.30
2024-03-15T18:44:36.984Z,14.30
2024-03-15T18:49:43.275Z,12.80
2024-03-15T18:54:49.800Z,13.20
2024-03-15T19:00:01.074Z,14.10
2024-03-15T19:05:05.692Z,13.90
2024-03-15T19:10:09.643Z,14.20
2024-03-15T19:15:12.685Z,13.60
2024-03-15T19:20:16.680Z,12.80
2024-03-15T19:25:20.458Z,13.60
2024-03-15T19:30:23.387Z,13.50
2024-03-15T19:35:26.190Z,13.20
2024-03-15T19:40:28.813Z,14.30
2024-03-15T19:45:31.509Z,13.20
2024-03-15T19:50:35.077Z,14.50
2024-03-15T19:55:39.459Z,14.40
2024-03-15T20:00:42.271Z,14.90
2024-03-15T20:05:47.353Z,15.10
2024-03-15T20:10:50.665Z,13.90
2024-03-15T20:15:55.183Z,14.20
2024-03-15T20:20:57.820Z,14.20
2024-03-15T20:26:00.632Z,15.20
2024-03-15T20:31:05.407Z,15.30
2024-03-15T20:36:08.003Z,14.30
2024-03-15T20:41:11.154Z,14.90
2024-03-15T20:46:16.188Z,17.00
2024-03-15T20:51:21.922Z,14.70
2024-03-15T20:56:26.056Z,14.30
2024-03-15T21:01:28.830Z,16.70
2024-03-15T21:06:34.971Z,15.30
2024-03-15T21:11:38.080Z,17.10
2024-03-15T21:16:41.259Z,16.90
2024-03-15T21:21:44.075Z,14.90
2024-03-15T21:26:47.018Z,15.90
2024-03-15T21:31:50.476Z,17.60
2024-03-15T21:36:54.202Z,17.30
2024-03-15T21:41:58.264Z,17.70
2024-03-15T21:47:00.980Z,17.60
2024-03-15T21:52:05.646Z,15.50
2024-03-15T21:57:08.290Z,16.90
2024-03-15T22:02:15.171Z,16.10
2024-03-15T22:07:18.108Z,15.80
2024-03-15T22:12:20.792Z,15.00
2024-03-15T22:17:23.634Z,16.30
2024-03-15T22:22:26.306Z,18.10
2024-03-15T22:27:29.022Z,18.60
2024-03-15T22:32:31.808Z,18.80
2024-03-15T22:37:34.429Z,18.00
2024-03-15T22:42:37.226Z,18.10
2024-03-15T22:47:40.143Z,18.80
2024-03-15T22:52:44.529Z,19.10
2024-03-15T22:57:47.208Z,19.00
2024-03-15T23:02:54.201Z,17.90
2024-03-15T23:07:57.091Z,17.70
2024-03-15T23:13:02.397Z,20.00
2024-03-15T23:18:07.232Z,19.40
2024-03-15T23:23:10.490Z,18.80
2024-03-15T23:28:13.311Z,19.10
2024-03-15T23:33:18.631Z,20.60
2024-03-15T23:38:21.425Z,19.40
2024-03-15T23:43:24.066Z,17.60
2024-03-15T23:48:28.531Z,20.10
2024-03-15T23:53:31.301Z,19.00
2024-03-15T23:58:33.968Z,19.80
